Strona główna
METAR-TAF:

METAR-TAF

Lotnisko :

Port lotniczy Irkuck

Irkuck, Rosja

Szerokość geograficzna: 52-16N, Długość geograficzna: 104-19E, wysokość: 513 m

Aktualna obserwacja pogody

Raport powstał 19 minut temu, godzina 19:30 UTC
Wiatr 4 kt od wschodnio-południowy wschód
Temperatura 14°C
Wilgotność 94%
Ciśnienie 1009 hPa
Widzialność 10 km lub więcej
Brak chmur poniżej 1500 m i brak chmur cumulonimbus

METAR: UIII 251930Z 11002MPS CAVOK 14/13 Q1009 R12/290150 NOSIG RMK QFE715/0953

czas: 03:49 (19:49 UTC)

Prognoza

Raport powstał 2 godziny i 49 minut temu, godzina 17:00 UTC
Prognoza ważna od 25 godzina 18 UTC do 26 godzina 18 UTC
Wiatr 2 kt z kierunków zmiennych
Widzialność 10 km lub więcej
Przejściowo
od 25 godzina 18 UTC do 26 godzina 01 UTC
Widzialność: 0300 m
na wysokości 100 ft
mgła
Stopniowe zmiany
od 26 godzina 01 UTC do 26 godzina 03 UTC
Rozproszone chmury na wysokości 2000 ft, Cumulonimbus.

TAF: UIII 251700Z 2518/2618 VRB01MPS 9999 NSC TEMPO 2518/2601 0300 FG VV001 BECMG 2601/2603 SCT020CB

Obserwacja i prognoza pogody dla ponad 4000 lotnisk (raport METAR i TAF).

Dostępne stacje oznaczono żółtymi i czerwonymi punktami na mapie.

Najedź kursorem aby zobaczyć nazwę stacji.

Kliknij aby zobaczyć obserwacje i prognozy pogody.

Aby zmienić mapę: kliknij na zielony przycisk z czarnym krzyżykiem, aby powiększyć; na zielony przycisk z myślnikiem, aby pomniejszyć; na zielone strzałki, aby przejść do map sąsiednich.


METAR-TAF: